Faisalabad, Pakistan
Current Conditions -  °F | °C
As of 11:55 PM on Friday 24 Oct 2014 (Local Time) from OPLA Reporting Station
Smoke Smoke  
Wind Chill: 73°   Ceiling: Unl
Heat Index: 73°   Visibility: 2.5mi
Dew Point: 63°   Wind: 9mph
Humidity: 69%   Direction: 350°N
Pressure: 29.94"   Gusts: NA
Location:  31.41°N, 73.11°E
Report Text: OPLA 241855Z 35008KT 4000 FU NSC 23/17 Q1014 NOSIG A29.94
Loading
Personal Weather Stations






























Interactive Weather Map
Tropical Storm Tracking
New forecast layout! Learn more

10-Day Weather Forecast

Advertisements
Track Severe Weather on mobile